Time;durP1;ratioP1;P1;durP2;ratioP2;P2;SDS_P1;SDS_P2;PMS_P1;PMS_P2;Temp;Humidity;BMP_temperature;BMP_pressure;BME280_temperature;BME280_humidity;BME280_pressure;Samples;Min_cycle;Max_cycle;Signal;HPM_P1;HPM_P2
2022/10/26 00:02:22;;;;;;;;;;;;;;;-144.99;100.00;52480.72;5074522;28;20322;-68
2022/10/26 00:04:48;;;;;;;;;;;;;;;-144.99;100.00;52456.25;5061260;28;20046;-69
2022/10/26 00:07:15;;;;;;;;;;;;;;;-144.99;100.00;52460.31;5059768;28;20316;-68
2022/10/26 00:09:43;;;;;;;;;;;;;;;-144.99;100.00;52464.41;5071494;28;19974;-68
2022/10/26 00:12:09;;;;;;;;;;;;;;;-144.99;100.00;52439.94;5070121;28;20025;-65
2022/10/26 00:14:36;;;;;;;;;;;;;;;-144.99;100.00;52415.47;5069232;28;19935;-67
2022/10/26 00:17:02;;;;;;;;;;;;;;;-144.99;100.00;52421.59;5061163;28;19959;-68
2022/10/26 00:19:28;;;;;;;;;;;;;;;-144.99;100.00;52450.13;5064053;28;19939;-68
2022/10/26 00:21:55;;;;;;;;;;;;;;;-144.99;100.00;52444.03;5062364;28;20323;-70
2022/10/26 00:24:21;;;;;;;;;;;;;;;-144.99;100.00;52458.28;5061265;28;20333;-68
2022/10/26 00:26:49;;;;;;;;;;;;;;;-144.99;100.00;52444.03;5067713;28;20455;-67
2022/10/26 00:29:17;;;;;;;;;;;;;;;-144.99;100.00;52431.78;5062099;28;19936;-68
2022/10/26 00:31:43;;;;;;;;;;;;;;;-144.99;100.00;52456.25;5052397;28;19973;-68
2022/10/26 00:34:10;;;;;;;;;;;;;;;-144.99;100.00;52433.81;5059851;28;20178;-68
2022/10/26 00:36:37;;;;;;;;;;;;;;;-144.99;100.00;52415.47;5057646;28;20038;-68
2022/10/26 00:39:03;;;;;;;;;;;;;;;-144.99;100.00;52423.63;5058438;28;19946;-69
2022/10/26 00:41:31;;;;;;;;;;;;;;;-144.99;100.00;52423.63;5066085;28;19954;-68
2022/10/26 00:43:59;;;;;;;;;;;;;;;-144.99;100.00;52423.63;5069248;28;19948;-68
2022/10/26 00:46:28;;;;;;;;;;;;;;;-144.99;100.00;52431.78;5067358;28;20039;-68
2022/10/26 00:48:56;;;;;;;;;;;;;;;-144.99;100.00;52448.09;5063208;28;19943;-67
2022/10/26 00:51:25;;;;;;;;;;;;;;;-144.99;100.00;52488.84;5062879;28;19959;-67
2022/10/26 00:53:52;;;;;;;;;;;;;;;-144.99;100.00;52431.78;5047604;28;20434;-70
2022/10/26 00:56:18;;;;;;;;;;;;;;;-144.99;100.00;52417.53;5065822;28;19943;-69
2022/10/26 00:58:45;;;;;;;;;;;;;;;-144.99;100.00;52452.16;5053237;28;20342;-67
2022/10/26 01:01:13;;;;;;;;;;;;;;;-144.99;100.00;52431.78;5060747;28;20433;-68
2022/10/26 01:03:39;;;;;;;;;;;;;;;-144.99;100.00;52427.72;5073214;28;20029;-70
2022/10/26 01:06:06;;;;;;;;;;;;;;;-144.99;100.00;52448.09;5063305;28;20410;-71
2022/10/26 01:08:33;;;;;;;;;;;;;;;-144.99;100.00;52427.72;5059434;28;19950;-72
2022/10/26 01:11:00;;;;;;;;;;;;;;;-144.99;100.00;52415.47;5062297;28;20037;-70
2022/10/26 01:13:28;;;;;;;;;;;;;;;-144.99;100.00;52488.84;5053306;28;19941;-72
2022/10/26 01:16:02;;;;;;;;;;;;;;;-144.99;100.00;52431.78;5059689;28;20044;-66
2022/10/26 01:18:37;;;;;;;;;;;;;;;-144.99;100.00;52439.94;5050145;28;19995;-66
2022/10/26 01:21:18;;;;;;;;;;;;;;;-144.99;100.00;52448.09;5060607;28;20273;-66
2022/10/26 01:23:54;;;;;;;;;;;;;;;-144.99;100.00;52444.03;5066163;28;20194;-67
2022/10/26 01:26:36;;;;;;;;;;;;;;;-144.99;100.00;52407.31;5063684;28;20034;-65
2022/10/26 01:29:20;;;;;;;;;;;;;;;-144.99;100.00;52462.34;5064125;28;19958;-64
2022/10/26 01:31:52;;;;;;;;;;;;;;;-144.99;100.00;52464.41;5062936;28;20050;-64
2022/10/26 01:34:21;;;;;;;;;;;;;;;-144.99;100.00;52452.16;5055542;28;19980;-66
2022/10/26 01:36:52;;;;;;;;;;;;;;;-144.99;100.00;52462.34;5073076;28;20386;-62
2022/10/26 01:39:22;;;;;;;;;;;;;;;-144.99;100.00;52456.25;5060767;28;19939;-63
2022/10/26 01:41:50;;;;;;;;;;;;;;;-144.99;100.00;52466.44;5067274;28;19970;-63
2022/10/26 01:44:18;;;;;;;;;;;;;;;-144.99;100.00;52439.94;5062128;28;20019;-65
2022/10/26 01:46:47;;;;;;;;;;;;;;;-144.99;100.00;52435.88;5071242;28;20313;-64
2022/10/26 01:49:17;;;;;;;;;;;;;;;-144.99;100.00;52448.09;5060791;28;19942;-65
2022/10/26 01:51:45;;;;;;;;;;;;;;;-144.99;100.00;52460.31;5063643;28;20015;-65
2022/10/26 01:54:11;;;;;;;;;;;;;;;-144.99;100.00;52439.94;5071270;28;20047;-65
2022/10/26 01:56:39;;;;;;;;;;;;;;;-144.99;100.00;52444.03;5069865;28;19934;-64
2022/10/26 01:59:30;;;;;;;;;;;;;;;-144.99;100.00;52435.88;5056686;28;20052;-62
2022/10/26 02:02:17;;;;;;;;;;;;;;;-144.99;100.00;52425.66;5065185;28;19983;-64
2022/10/26 02:04:51;;;;;;;;;;;;;;;-144.99;100.00;52423.63;5061342;28;20027;-64
2022/10/26 02:07:23;;;;;;;;;;;;;;;-144.99;100.00;52456.25;5060466;28;19964;-63
2022/10/26 02:09:56;;;;;;;;;;;;;;;-144.99;100.00;52435.88;5062976;28;19955;-63
2022/10/26 02:12:30;;;;;;;;;;;;;;;-144.99;100.00;52492.94;5064796;28;19966;-64
2022/10/26 02:14:59;;;;;;;;;;;;;;;-144.99;100.00;52437.91;5072409;28;20058;-63
2022/10/26 02:17:27;;;;;;;;;;;;;;;-144.99;100.00;52413.44;5067207;28;19991;-64
2022/10/26 02:19:58;;;;;;;;;;;;;;;-144.99;100.00;52456.25;5063174;28;19965;-64
2022/10/26 02:22:26;;;;;;;;;;;;;;;-144.99;100.00;52460.31;5058848;28;19964;-63
2022/10/26 02:24:54;;;;;;;;;;;;;;;-144.99;100.00;52444.03;5067027;28;20305;-62
2022/10/26 02:27:23;;;;;;;;;;;;;;;-144.99;100.00;52460.31;5062286;28;20022;-63
2022/10/26 02:29:51;;;;;;;;;;;;;;;-144.99;100.00;52452.16;5062010;28;19972;-63
2022/10/26 02:32:18;;;;;;;;;;;;;;;-144.99;100.00;52427.72;5058712;28;19956;-64
2022/10/26 02:34:47;;;;;;;;;;;;;;;-144.99;100.00;52456.25;5069911;28;20039;-72
2022/10/26 02:37:16;;;;;;;;;;;;;;;-144.99;100.00;52464.41;5066011;28;19992;-71
2022/10/26 02:39:43;;;;;;;;;;;;;;;-144.99;100.00;52419.56;5057622;28;20058;-70
2022/10/26 02:42:10;;;;;;;;;;;;;;;-144.99;100.00;52476.63;5064775;28;20033;-71
2022/10/26 02:44:40;;;;;;;;;;;;;;;-144.99;100.00;52439.94;5062206;28;20310;-70
2022/10/26 02:47:06;;;;;;;;;;;;;;;-144.99;100.00;52409.38;5066100;28;19944;-69
2022/10/26 02:49:33;;;;;;;;;;;;;;;-144.99;100.00;52480.72;5061249;28;20034;-69
2022/10/26 02:52:02;;;;;;;;;;;;;;;-144.99;100.00;52476.63;5056385;28;19988;-70
2022/10/26 02:54:33;;;;;;;;;;;;;;;-144.99;100.00;52446.06;5059708;28;19937;-69
2022/10/26 02:57:01;;;;;;;;;;;;;;;-144.99;100.00;52460.31;5069958;28;20092;-68
2022/10/26 02:59:30;;;;;;;;;;;;;;;-144.99;100.00;52448.09;5048809;28;20053;-68
2022/10/26 03:01:58;;;;;;;;;;;;;;;-144.99;100.00;52472.56;5059838;28;20390;-67
2022/10/26 03:04:29;;;;;;;;;;;;;;;-144.99;100.00;52431.78;5077433;28;20039;-69
2022/10/26 03:06:55;;;;;;;;;;;;;;;-144.99;100.00;52460.31;5065389;28;19945;-70
2022/10/26 03:09:22;;;;;;;;;;;;;;;-144.99;100.00;52423.63;5065124;28;20078;-70
2022/10/26 03:11:49;;;;;;;;;;;;;;;-144.99;100.00;52476.63;5059006;28;19959;-65
2022/10/26 03:14:16;;;;;;;;;;;;;;;-144.99;100.00;52472.56;5057719;28;19963;-64
2022/10/26 03:16:42;;;;;;;;;;;;;;;-144.99;100.00;52458.28;5068837;28;19943;-65
2022/10/26 03:19:09;;;;;;;;;;;;;;;-144.99;100.00;52431.78;5072711;28;20049;-64
2022/10/26 03:21:35;;;;;;;;;;;;;;;-144.99;100.00;52484.78;5061340;28;20101;-65
2022/10/26 03:24:02;;;;;;;;;;;;;;;-144.99;100.00;52476.63;5068496;28;19943;-65
2022/10/26 03:26:28;;;;;;;;;;;;;;;-144.99;100.00;52452.16;5069674;28;19996;-66
2022/10/26 03:28:56;;;;;;;;;;;;;;;-144.99;100.00;52458.28;5071383;28;20263;-66
2022/10/26 03:31:22;;;;;;;;;;;;;;;-144.99;100.00;52448.09;5055282;28;20074;-66
2022/10/26 03:33:49;;;;;;;;;;;;;;;-144.99;100.00;52484.78;5068238;22;20319;-73
2022/10/26 03:36:15;;;;;;;;;;;;;;;-144.99;100.00;52423.63;5065458;28;19939;-71
2022/10/26 03:38:42;;;;;;;;;;;;;;;-144.99;100.00;52476.63;5061323;28;20430;-71
2022/10/26 03:41:08;;;;;;;;;;;;;;;-144.99;100.00;52466.44;5057089;28;20045;-72
2022/10/26 03:43:34;;;;;;;;;;;;;;;-144.99;100.00;52468.47;5064505;28;20421;-74
2022/10/26 03:46:02;;;;;;;;;;;;;;;-144.99;100.00;52452.16;5063832;28;19950;-74
2022/10/26 03:48:29;;;;;;;;;;;;;;;-144.99;100.00;52452.16;5065306;28;19937;-75
2022/10/26 03:50:57;;;;;;;;;;;;;;;-144.99;100.00;52444.03;5067388;28;19965;-75
2022/10/26 03:53:23;;;;;;;;;;;;;;;-144.99;100.00;52441.97;5067477;28;19939;-75
2022/10/26 03:55:49;;;;;;;;;;;;;;;-144.99;100.00;52452.16;5066306;28;19939;-63
2022/10/26 03:58:16;;;;;;;;;;;;;;;-144.99;100.00;52464.41;5067350;28;19964;-63
2022/10/26 04:00:42;;;;;;;;;;;;;;;-144.99;100.00;52456.25;5061412;28;19957;-63
2022/10/26 04:03:10;;;;;;;;;;;;;;;-144.99;100.00;52448.09;5064082;28;20423;-62
2022/10/26 04:05:36;;;;;;;;;;;;;;;-144.99;100.00;52431.78;5062162;28;19942;-64
2022/10/26 04:08:03;;;;;;;;;;;;;;;-144.99;100.00;52476.63;5062261;28;19940;-62
2022/10/26 04:10:29;;;;;;;;;;;;;;;-144.99;100.00;52458.28;5066314;28;19953;-63
2022/10/26 04:12:57;;;;;;;;;;;;;;;-144.99;100.00;52460.31;5065986;28;19961;-65
2022/10/26 04:15:24;;;;;;;;;;;;;;;-144.99;100.00;52425.66;5065226;28;19939;-68
2022/10/26 04:17:55;;;;;;;;;;;;;;;-144.99;100.00;52450.13;5063064;28;19945;-71
2022/10/26 04:20:23;;;;;;;;;;;;;;;-144.99;100.00;52480.72;5065517;28;19959;-71
2022/10/26 04:22:56;;;;;;;;;;;;;;;-144.99;100.00;52460.31;5067464;28;20249;-72
2022/10/26 04:25:22;;;;;;;;;;;;;;;-144.99;100.00;52478.66;5066345;28;19937;-71
2022/10/26 04:27:49;;;;;;;;;;;;;;;-144.99;100.00;52439.94;5065367;28;19954;-71
2022/10/26 04:30:15;;;;;;;;;;;;;;;-144.99;100.00;52452.16;5066370;28;19960;-71
2022/10/26 04:32:42;;;;;;;;;;;;;;;-144.99;100.00;52480.72;5065833;28;20281;-71
2022/10/26 04:35:08;;;;;;;;;;;;;;;-144.99;100.00;52382.88;5066580;28;19965;-71
2022/10/26 04:37:36;;;;;;;;;;;;;;;-144.99;100.00;52429.75;5064380;28;19941;-71
2022/10/26 04:40:02;;;;;;;;;;;;;;;-144.99;100.00;52488.84;5058501;28;19968;-71
2022/10/26 04:42:32;;;;;;;;;;;;;;;-144.99;100.00;52460.31;5068295;28;19964;-71
2022/10/26 04:44:59;;;;;;;;;;;;;;;-144.99;100.00;52505.16;5067446;28;20571;-70
2022/10/26 04:47:25;;;;;;;;;;;;;;;-144.99;100.00;52452.16;5066581;28;20048;-71
2022/10/26 04:49:52;;;;;;;;;;;;;;;-144.99;100.00;52454.22;5069074;28;20060;-71
2022/10/26 04:52:18;;;;;;;;;;;;;;;-144.99;100.00;52452.16;5065821;28;19935;-70
2022/10/26 04:54:46;;;;;;;;;;;;;;;-144.99;100.00;52458.28;5069063;28;20371;-70
2022/10/26 04:57:12;;;;;;;;;;;;;;;-144.99;100.00;52448.09;5066442;28;19939;-67
2022/10/26 04:59:39;;;;;;;;;;;;;;;-144.99;100.00;52497.00;5068540;28;19958;-71
2022/10/26 05:02:05;;;;;;;;;;;;;;;-144.99;100.00;52435.88;5064057;28;20418;-67
2022/10/26 05:04:31;;;;;;;;;;;;;;;-144.99;100.00;52444.03;5067227;28;19936;-68
2022/10/26 05:06:58;;;;;;;;;;;;;;;-144.99;100.00;52415.47;5066823;28;19925;-67
2022/10/26 05:09:24;;;;;;;;;;;;;;;-144.99;100.00;52456.25;5063955;28;19961;-66
2022/10/26 05:11:52;;;;;;;;;;;;;;;-144.99;100.00;52480.72;5065096;28;19971;-75
2022/10/26 05:14:18;;;;;;;;;;;;;;;-144.99;100.00;52456.25;5072303;28;19987;-81
2022/10/26 05:16:45;;;;;;;;;;;;;;;-144.99;100.00;52413.44;4723725;28;10000186;-82
2022/10/26 05:19:11;;;;;;;;;;;;;;;-144.99;100.00;52431.78;5071914;28;20050;-81
2022/10/26 05:21:38;;;;;;;;;;;;;;;-144.99;100.00;52452.16;5081120;28;19968;-82
2022/10/26 05:24:04;;;;;;;;;;;;;;;-144.99;100.00;52464.41;5077429;28;19951;-80
2022/10/26 05:26:31;;;;;;;;;;;;;;;-144.99;100.00;52460.31;5077239;28;20093;-81
2022/10/26 05:28:59;;;;;;;;;;;;;;;-144.99;100.00;52480.72;5077621;28;19993;-82
2022/10/26 05:31:25;;;;;;;;;;;;;;;-144.99;100.00;52464.41;5077946;28;20026;-83
2022/10/26 05:33:52;;;;;;;;;;;;;;;-144.99;100.00;52494.97;5075565;28;20284;-81
2022/10/26 05:36:18;;;;;;;;;;;;;;;-144.99;100.00;52444.03;5067977;28;19947;-81
2022/10/26 05:38:45;;;;;;;;;;;;;;;-144.99;100.00;52488.84;5064922;28;19961;-82
2022/10/26 05:41:11;;;;;;;;;;;;;;;-144.99;100.00;52391.03;5073883;28;19964;-81
2022/10/26 05:43:38;;;;;;;;;;;;;;;-144.99;100.00;52435.88;5069162;28;20004;-82
2022/10/26 05:46:05;;;;;;;;;;;;;;;-144.99;100.00;52497.00;5071858;28;19947;-81
2022/10/26 05:48:32;;;;;;;;;;;;;;;-144.99;100.00;52484.78;5074287;28;20374;-81
2022/10/26 05:50:59;;;;;;;;;;;;;;;-144.99;100.00;52452.16;5074903;28;20042;-81
2022/10/26 05:53:25;;;;;;;;;;;;;;;-144.99;100.00;52468.47;5071449;28;19943;-80
2022/10/26 05:55:53;;;;;;;;;;;;;;;-144.99;100.00;52435.88;5074184;28;20117;-81
2022/10/26 05:58:20;;;;;;;;;;;;;;;-144.99;100.00;52464.41;5075181;28;20013;-83
2022/10/26 06:00:54;;;;;;;;;;;;;;;-144.99;100.00;52460.31;5078142;28;19952;-82
2022/10/26 06:03:29;;;;;;;;;;;;;;;-144.99;100.00;52513.31;5076279;28;19982;-83
2022/10/26 06:05:56;;;;;;;;;;;;;;;-144.99;100.00;52492.94;5086710;28;19924;-82
2022/10/26 06:08:24;;;;;;;;;;;;;;;-144.99;100.00;52464.41;5092435;28;20118;-82
2022/10/26 06:10:50;;;;;;;;;;;;;;;-144.99;100.00;52452.16;5094149;28;19969;-82
2022/10/26 06:13:18;;;;;;;;;;;;;;;-144.99;100.00;52468.47;5086578;28;19945;-81
2022/10/26 06:15:51;;;;;;;;;;;;;;;-144.99;100.00;52446.06;5085471;28;19951;-80
2022/10/26 06:18:25;;;;;;;;;;;;;;;-144.99;100.00;52423.63;5076676;28;19975;-80
2022/10/26 06:20:59;;;;;;;;;;;;;;;-144.99;100.00;52464.41;5072040;28;19955;-80
2022/10/26 06:23:39;;;;;;;;;;;;;;;-144.99;100.00;52472.56;5074977;28;20297;-79
2022/10/26 06:26:08;;;;;;;;;;;;;;;-144.99;100.00;52448.09;5075358;28;19966;-81
2022/10/26 06:28:40;;;;;;;;;;;;;;;-144.99;100.00;52452.16;5074840;28;20489;-80
2022/10/26 06:31:07;;;;;;;;;;;;;;;-144.99;100.00;52460.31;5076488;28;19999;-80
2022/10/26 06:33:33;;;;;;;;;;;;;;;-144.99;100.00;52464.41;5074624;28;20529;-81
2022/10/26 06:36:10;;;;;;;;;;;;;;;-144.99;100.00;52444.03;5071005;28;19947;-81
2022/10/26 06:38:38;;;;;;;;;;;;;;;-144.99;100.00;52433.81;5071642;28;19939;-81
2022/10/26 06:41:05;;;;;;;;;;;;;;;-144.99;100.00;52439.94;5069820;28;20343;-81
2022/10/26 06:43:32;;;;;;;;;;;;;;;-144.99;100.00;52464.41;5072777;28;19953;-82
2022/10/26 06:46:05;;;;;;;;;;;;;;;-144.99;100.00;52476.63;5068667;28;20334;-80
2022/10/26 06:48:39;;;;;;;;;;;;;;;-144.99;100.00;52417.53;5074392;28;19999;-80
2022/10/26 06:51:13;;;;;;;;;;;;;;;-144.99;100.00;52448.09;5072262;28;20165;-80
2022/10/26 06:53:43;;;;;;;;;;;;;;;-144.99;100.00;52427.72;5075665;28;19931;-80
2022/10/26 06:56:11;;;;;;;;;;;;;;;-144.99;100.00;52419.56;5071221;28;20026;-80
2022/10/26 06:58:39;;;;;;;;;;;;;;;-144.99;100.00;52456.25;5073797;28;20408;-81
2022/10/26 07:01:06;;;;;;;;;;;;;;;-144.99;100.00;52446.06;5072068;28;20007;-82
2022/10/26 07:03:33;;;;;;;;;;;;;;;-144.99;100.00;52462.34;5079860;28;19981;-80
2022/10/26 07:05:59;;;;;;;;;;;;;;;-144.99;100.00;52448.09;5080553;28;19970;-80
2022/10/26 07:08:27;;;;;;;;;;;;;;;-144.99;100.00;52415.47;4726082;28;10000280;-82
2022/10/26 07:10:53;;;;;;;;;;;;;;;-144.99;100.00;52399.19;5085123;28;20227;-83
2022/10/26 07:13:20;;;;;;;;;;;;;;;-144.99;100.00;52441.97;5091893;28;20319;-82
2022/10/26 07:15:46;;;;;;;;;;;;;;;-144.99;100.00;52439.94;5081909;28;19978;-80
2022/10/26 07:18:13;;;;;;;;;;;;;;;-144.99;100.00;52423.63;5064317;28;19944;-80
2022/10/26 07:20:40;;;;;;;;;;;;;;;-144.99;100.00;52427.72;5065462;28;20077;-81
2022/10/26 07:23:09;;;;;;;;;;;;;;;-144.99;100.00;52395.09;5066988;28;19943;-80
2022/10/26 07:25:39;;;;;;;;;;;;;;;-144.99;100.00;52395.09;5063945;28;19940;-80
2022/10/26 07:28:06;;;;;;;;;;;;;;;-144.99;100.00;52423.63;5072616;28;20270;-79
2022/10/26 07:30:32;;;;;;;;;;;;;;;-144.99;100.00;52374.72;5070449;28;19989;-79
2022/10/26 07:32:59;;;;;;;;;;;;;;;-144.99;100.00;52403.25;5058769;28;19966;-79
2022/10/26 07:35:26;;;;;;;;;;;;;;;-144.99;100.00;52458.28;5069391;28;19937;-81
2022/10/26 07:37:55;;;;;;;;;;;;;;;-144.99;100.00;52415.47;5067655;28;19940;-81
2022/10/26 07:40:22;;;;;;;;;;;;;;;-144.99;100.00;52391.03;5069174;28;20033;-79
2022/10/26 07:42:50;;;;;;;;;;;;;;;-144.99;100.00;52374.72;5058364;28;20032;-80
2022/10/26 07:45:16;;;;;;;;;;;;;;;-144.99;98.94;52395.09;5064469;28;19938;-79
2022/10/26 07:47:43;;;;;;;;;;;;;;;-144.99;97.17;52407.31;5067275;28;19965;-79
2022/10/26 07:50:10;;;;;;;;;;;;;;;-144.99;96.28;52378.78;5059583;28;20296;-80
2022/10/26 07:52:37;;;;;;;;;;;;;;;-144.99;96.15;52399.19;5071673;28;20401;-82
2022/10/26 07:55:04;;;;;;;;;;;;;;;-144.99;93.33;52393.06;5072476;28;20046;-81
2022/10/26 07:57:31;;;;;;;;;;;;;;;-144.99;94.27;52370.63;5068086;28;19939;-80
2022/10/26 07:59:59;;;;;;;;;;;;;;;-144.99;92.05;52421.59;5070023;28;19961;-80
2022/10/26 08:02:25;;;;;;;;;;;;;;;-144.99;92.10;52344.16;5058282;28;20002;-80
2022/10/26 08:04:52;;;;;;;;;;;;;;;-144.99;90.55;52364.53;5062949;28;19962;-82
2022/10/26 08:07:18;;;;;;;;;;;;;;;-144.99;88.82;52399.19;5064833;28;19953;-79
2022/10/26 08:09:44;;;;;;;;;;;;;;;-144.99;87.53;52395.09;5066033;28;19959;-79
2022/10/26 08:12:12;;;;;;;;;;;;;;;-144.99;87.50;52386.94;5068596;28;19953;-80
2022/10/26 08:14:39;;;;;;;;;;;;;;;-144.99;86.63;52354.34;5081964;28;20090;-82
2022/10/26 08:17:06;;;;;;;;;;;;;;;-144.99;85.94;52352.28;5088713;28;20011;-82
2022/10/26 08:19:33;;;;;;;;;;;;;;;-144.99;84.24;52362.50;5088267;28;19962;-82
2022/10/26 08:21:59;;;;;;;;;;;;;;;-144.99;84.98;52423.63;5072220;28;20077;-82
2022/10/26 08:24:26;;;;;;;;;;;;;;;-144.99;83.22;52399.19;5067075;28;19997;-81
2022/10/26 08:26:52;;;;;;;;;;;;;;;-144.99;82.54;52366.56;5066728;28;19965;-79
2022/10/26 08:29:19;;;;;;;;;;;;;;;-144.99;81.36;52350.25;5067641;28;20406;-80
2022/10/26 08:31:47;;;;;;;;;;;;;;;-144.99;80.42;52376.75;5064225;28;19960;-80
2022/10/26 08:34:15;;;;;;;;;;;;;;;-144.99;79.87;52346.19;5064659;28;20027;-80
2022/10/26 08:36:41;;;;;;;;;;;;;;;-144.99;79.25;52370.63;5063009;28;20397;-80
2022/10/26 08:39:08;;;;;;;;;;;;;;;-144.99;77.59;52325.81;5072034;28;20111;-81
2022/10/26 08:41:37;;;;;;;;;;;;;;;-144.99;75.86;52362.50;5088952;28;19978;-84
2022/10/26 08:44:07;;;;;;;;;;;;;;;-144.99;75.19;52333.94;5085216;28;19953;-83
2022/10/26 08:46:36;;;;;;;;;;;;;;;-144.99;76.25;52362.50;5075565;28;20408;-81
2022/10/26 08:49:04;;;;;;;;;;;;;;;-144.99;76.86;52342.09;5073084;28;20046;-80
2022/10/26 08:51:35;;;;;;;;;;;;;;;-144.99;75.05;52338.03;5070822;28;19961;-82
2022/10/26 08:54:04;;;;;;;;;;;;;;;-144.99;75.22;52360.44;5068284;28;20384;-81
2022/10/26 08:56:35;;;;;;;;;;;;;;;-144.99;74.49;52364.53;5069574;28;19969;-80
2022/10/26 08:59:06;;;;;;;;;;;;;;;-144.99;73.77;52362.50;5070263;28;20005;-81
2022/10/26 09:01:33;;;;;;;;;;;;;;;-144.99;71.40;52325.81;5071827;28;20024;-81
2022/10/26 09:04:01;;;;;;;;;;;;;;;-144.99;71.81;52333.94;5070068;28;20444;-81
2022/10/26 09:06:32;;;;;;;;;;;;;;;-144.99;69.85;52325.81;5071119;28;20167;-80
2022/10/26 09:09:03;;;;;;;;;;;;;;;-144.99;69.33;52346.19;5069790;28;20059;-81
2022/10/26 09:11:46;;;;;;;;;;;;;;;-144.99;67.51;52289.13;5074772;28;19967;-81
2022/10/26 09:14:16;;;;;;;;;;;;;;;-144.99;66.05;52305.41;5069552;28;20022;-81
2022/10/26 09:16:46;;;;;;;;;;;;;;;-144.99;64.16;52293.19;5070782;28;20420;-81
2022/10/26 09:19:31;;;;;;;;;;;;;;;-144.99;63.15;52297.25;5070921;28;19928;-81
2022/10/26 09:22:04;;;;;;;;;;;;;;;-144.99;61.79;52295.22;5068642;28;20425;-81
2022/10/26 09:24:33;;;;;;;;;;;;;;;-144.99;60.58;52272.81;5056384;28;20414;-81
2022/10/26 09:27:05;;;;;;;;;;;;;;;-144.99;59.37;52285.03;5069474;28;20385;-81
2022/10/26 09:29:34;;;;;;;;;;;;;;;-144.99;58.70;52260.56;5070254;28;20168;-80
2022/10/26 09:32:01;;;;;;;;;;;;;;;-144.99;57.82;52309.50;5069985;28;20031;-80
2022/10/26 09:34:31;;;;;;;;;;;;;;;-144.99;57.30;52238.16;5081008;22;20082;-68
2022/10/26 09:36:58;;;;;;;;;;;;;;;-144.99;55.31;52276.88;5063170;28;20649;-68
2022/10/26 09:39:28;;;;;;;;;;;;;;;-144.99;53.80;52268.72;5067369;28;19944;-68
2022/10/26 09:41:58;;;;;;;;;;;;;;;-144.99;52.81;52246.31;5048229;28;20706;-68
2022/10/26 09:44:26;;;;;;;;;;;;;;;-144.99;52.34;52276.88;5047458;28;19969;-67
2022/10/26 09:46:56;;;;;;;;;;;;;;;-144.99;51.22;52248.34;5048650;28;19947;-68
2022/10/26 09:49:29;;;;;;;;;;;;;;;-144.99;49.87;52232.03;5038721;28;19959;-68
2022/10/26 09:51:55;;;;;;;;;;;;;;;-144.99;49.00;52262.63;5048300;28;20299;-68
2022/10/26 09:54:22;;;;;;;;;;;;;;;-144.99;48.08;52221.84;5046516;28;20333;-68
2022/10/26 09:56:51;;;;;;;;;;;;;;;-144.99;46.69;52203.50;5046532;28;19942;-73
2022/10/26 09:59:21;;;;;;;;;;;;;;;-144.99;45.50;52170.91;5047509;28;20373;-67
2022/10/26 10:01:47;;;;;;;;;;;;;;;-144.99;45.78;52187.19;5046078;28;20081;-68
2022/10/26 10:04:19;;;;;;;;;;;;;;;-144.99;45.10;52195.34;5046328;28;19947;-67
2022/10/26 10:06:46;;;;;;;;;;;;;;;-144.99;44.06;52152.56;5043625;28;19987;-67
2022/10/26 10:09:13;;;;;;;;;;;;;;;-144.99;43.26;52138.28;5045345;28;19964;-68
2022/10/26 10:11:40;;;;;;;;;;;;;;;-144.99;43.77;52146.44;5046419;28;19991;-68
2022/10/26 10:14:08;;;;;;;;;;;;;;;-144.99;43.30;52136.25;5045984;28;20349;-68
2022/10/26 10:16:36;;;;;;;;;;;;;;;-144.99;42.44;52130.13;5046099;28;19942;-68
2022/10/26 10:19:02;;;;;;;;;;;;;;;-144.99;41.60;52109.75;5046311;28;20042;-69
2022/10/26 10:21:36;;;;;;;;;;;;;;;-144.99;40.69;52085.31;5046718;28;19961;-68
2022/10/26 10:24:20;;;;;;;;;;;;;;;-144.99;40.51;52115.88;5044965;28;19948;-69
2022/10/26 10:26:55;;;;;;;;;;;;;;;-144.99;40.50;52081.22;5045650;28;19962;-69
2022/10/26 10:29:24;;;;;;;;;;;;;;;-144.99;40.21;52077.16;5047292;28;19954;-69
2022/10/26 10:31:57;;;;;;;;;;;;;;;-144.99;39.75;52032.31;5045519;28;19970;-69
2022/10/26 10:34:23;;;;;;;;;;;;;;;-144.99;39.32;52083.25;5046490;28;19981;-69
2022/10/26 10:36:50;;;;;;;;;;;;;;;-144.99;39.08;52087.34;5042677;28;20038;-68
2022/10/26 10:39:27;;;;;;;;;;;;;;;-144.99;38.66;52056.78;5045177;28;19940;-68
2022/10/26 10:41:54;;;;;;;;;;;;;;;-144.99;38.32;52052.69;5045424;28;19967;-69
2022/10/26 10:44:24;;;;;;;;;;;;;;;-144.99;38.01;52003.78;5045498;28;20477;-69
2022/10/26 10:46:51;;;;;;;;;;;;;;;-144.99;37.69;52024.16;5044072;28;20085;-69
2022/10/26 10:49:20;;;;;;;;;;;;;;;-144.99;37.38;52005.81;5045255;28;20357;-69
2022/10/26 10:51:47;;;;;;;;;;;;;;;-144.99;36.48;52024.16;5045177;28;19962;-68
2022/10/26 10:54:21;;;;;;;;;;;;;;;-144.99;36.55;52024.16;5044970;28;20030;-69
2022/10/26 10:56:51;;;;;;;;;;;;;;;-144.99;36.36;52052.69;5043891;28;19940;-69
2022/10/26 10:59:28;;;;;;;;;;;;;;;-144.99;36.81;52032.31;5046381;28;19950;-68
2022/10/26 11:02:02;;;;;;;;;;;;;;;-144.99;36.69;52081.22;5046471;28;20454;-68
2022/10/26 11:04:45;;;;;;;;;;;;;;;-144.99;37.28;52066.97;5046005;28;19945;-69
2022/10/26 11:07:13;;;;;;;;;;;;;;;-144.99;37.05;52069.00;5035360;28;20468;-69
2022/10/26 11:09:42;;;;;;;;;;;;;;;-144.99;37.03;52091.41;5048233;28;20331;-68
2022/10/26 11:12:12;;;;;;;;;;;;;;;-144.99;37.30;52077.16;5046793;28;19943;-68
2022/10/26 11:14:40;;;;;;;;;;;;;;;-144.99;37.33;52056.78;5048380;28;20022;-69
2022/10/26 11:17:08;;;;;;;;;;;;;;;-144.99;36.96;52077.16;5045327;28;19928;-69
2022/10/26 11:19:38;;;;;;;;;;;;;;;-144.99;36.52;52024.16;5042586;28;19939;-68
2022/10/26 11:22:11;;;;;;;;;;;;;;;-144.99;35.77;51979.31;5043674;28;20462;-69
2022/10/26 11:24:40;;;;;;;;;;;;;;;-144.99;35.49;52009.91;5045668;28;20332;-69
2022/10/26 11:27:13;;;;;;;;;;;;;;;-144.99;nan;52003.78;5045899;28;19925;-69
2022/10/26 11:29:43;;;;;;;;;;;;;;;-144.99;35.09;52077.16;5044173;28;20440;-69
2022/10/26 11:32:14;;;;;;;;;;;;;;;-144.99;35.98;52060.84;5044170;28;19936;-68
2022/10/26 11:34:45;;;;;;;;;;;;;;;-144.99;36.54;52007.84;5040709;28;19959;-69
2022/10/26 11:37:15;;;;;;;;;;;;;;;-144.99;36.14;52052.69;5041019;28;19955;-69
2022/10/26 11:39:44;;;;;;;;;;;;;;;-144.99;36.92;52064.91;5043211;28;20310;-69
2022/10/26 11:42:15;;;;;;;;;;;;;;;-144.99;37.31;52085.31;5044122;28;20431;-69
2022/10/26 11:44:45;;;;;;;;;;;;;;;-144.99;36.96;52046.56;5031704;28;20049;-69
2022/10/26 11:47:14;;;;;;;;;;;;;;;-144.99;36.20;52007.84;5044446;28;20028;-69
2022/10/26 11:49:43;;;;;;;;;;;;;;;-144.99;35.14;51954.88;5043438;28;19939;-69
2022/10/26 11:52:16;;;;;;;;;;;;;;;-144.99;35.47;51946.72;5042321;28;19954;-70
2022/10/26 11:54:46;;;;;;;;;;;;;;;-144.99;34.87;52007.84;5045210;28;19937;-68
2022/10/26 11:57:14;;;;;;;;;;;;;;;-144.99;35.23;51995.63;5044307;28;19943;-68
2022/10/26 11:59:44;;;;;;;;;;;;;;;-144.99;35.01;51956.91;5043654;28;20404;-69
2022/10/26 12:02:14;;;;;;;;;;;;;;;-144.99;34.23;51963.03;5043717;28;19925;-69
2022/10/26 12:04:41;;;;;;;;;;;;;;;-144.99;33.51;51946.72;5043950;28;20037;-69
2022/10/26 12:07:11;;;;;;;;;;;;;;;-144.99;33.01;51958.94;5045720;28;19962;-68
2022/10/26 12:09:38;;;;;;;;;;;;;;;-144.99;33.61;52003.78;5043786;28;20068;-68
2022/10/26 12:12:09;;;;;;;;;;;;;;;-144.99;33.48;51958.94;5044639;28;19959;-69
2022/10/26 12:14:38;;;;;;;;;;;;;;;-144.99;33.74;51934.50;5043647;28;20033;-69
2022/10/26 12:17:09;;;;;;;;;;;;;;;-144.99;33.40;51971.16;5039490;28;19949;-69
2022/10/26 12:19:39;;;;;;;;;;;;;;;-144.99;33.71;51950.78;5043836;28;20158;-69
2022/10/26 12:22:09;;;;;;;;;;;;;;;-144.99;32.98;51965.06;5041871;28;20075;-69
2022/10/26 12:24:38;;;;;;;;;;;;;;;-144.99;32.45;51979.31;5043976;28;20494;-69
2022/10/26 12:27:05;;;;;;;;;;;;;;;-144.99;33.37;51981.38;5043548;28;19979;-69
2022/10/26 12:29:38;;;;;;;;;;;;;;;-144.99;33.81;51999.69;5043749;28;19990;-69